SIA819 LSZH-YSSY
Flight info
| Callsign | SIA819 |
|---|---|
| Flight time | N/A |
| Altitude | 33000 |
| Route | DEGES DCT XEBIX Z2 UMVEG DCT VEKEN DCT MAGAM DCT ETIDA/N0488F350 Q7 IVGOT L744 UDROS UM859 KARDE UN644 ROLIN N644 LAGAS M747 SULEL N449 DUKAN B449 HOFNI/N0488F370 B449 RANAH L750 ZB G201 BINDO L750 MERUN L333 JJP J1 MEMID/N0488F390 J1 KKJ L759 PUT B579 VPL W531 SOTRO/N0485F410 W531 VIH A464 VKL Y507 MAKNA Y511 TOPOR A464 ARAMA P501 ANITO B470 PKP L511 SBR M766 BLI M635 ATMAP A576 PKS W440 RUPEM V599 DARGI W652 ODALE |
| Aircraft | A359/H-SDE2E3GHIJ3J4J5LM1ORWXY/LB1D1 |
Departure
| Time | N/A |
|---|---|
| Airport | Zürich Airport (LSZH) |
Arrival
| Time | 2026-04-24 10:14 |
|---|---|
| Airport | Sydney Kingsford Smith International Airport (YSSY) |
| Time | Latitude | Longitude | Altitude | Speed | Heading |
|---|---|---|---|---|---|
| 2026-04-24 08:54 | -29.63702 | 142.26463 | 41298 ft | 492 kts | 133° |
| 2026-04-24 08:54 | -29.65713 | 142.29651 | 41287 ft | 492 kts | 133° |
| 2026-04-24 08:55 | -29.69727 | 142.36026 | 41275 ft | 492 kts | 133° |
| 2026-04-24 08:55 | -29.73738 | 142.42404 | 41282 ft | 492 kts | 133° |
| 2026-04-24 08:56 | -29.77719 | 142.48740 | 41288 ft | 491 kts | 133° |
| 2026-04-24 08:56 | -29.81722 | 142.55119 | 41291 ft | 491 kts | 133° |
| 2026-04-24 08:57 | -29.85717 | 142.61496 | 41290 ft | 490 kts | 133° |
| 2026-04-24 08:57 | -29.89705 | 142.67874 | 41296 ft | 490 kts | 133° |
| 2026-04-24 08:58 | -29.93685 | 142.74251 | 41302 ft | 490 kts | 133° |
| 2026-04-24 08:58 | -29.97663 | 142.80634 | 41302 ft | 489 kts | 133° |
| 2026-04-24 08:59 | -30.01632 | 142.87013 | 41307 ft | 489 kts | 132° |
| 2026-04-24 08:59 | -30.05596 | 142.93395 | 41309 ft | 489 kts | 132° |
| 2026-04-24 09:00 | -30.09527 | 142.99734 | 41309 ft | 489 kts | 132° |
| 2026-04-24 09:00 | -30.13482 | 143.06121 | 41311 ft | 488 kts | 132° |
| 2026-04-24 09:01 | -30.17425 | 143.12499 | 41313 ft | 488 kts | 132° |
| 2026-04-24 09:01 | -30.21371 | 143.18889 | 41319 ft | 487 kts | 132° |
| 2026-04-24 09:02 | -30.25300 | 143.25273 | 41319 ft | 487 kts | 132° |
| 2026-04-24 09:02 | -30.29221 | 143.31655 | 41321 ft | 487 kts | 132° |
| 2026-04-24 09:03 | -30.33142 | 143.38044 | 41323 ft | 486 kts | 131° |
| 2026-04-24 09:03 | -30.37055 | 143.44429 | 41322 ft | 486 kts | 131° |
| 2026-04-24 09:04 | -30.40964 | 143.50817 | 41320 ft | 486 kts | 131° |
| 2026-04-24 09:04 | -30.44869 | 143.57211 | 41321 ft | 486 kts | 131° |
| 2026-04-24 09:05 | -30.48747 | 143.63568 | 41328 ft | 486 kts | 131° |
| 2026-04-24 09:05 | -30.52650 | 143.69977 | 41309 ft | 486 kts | 131° |
| 2026-04-24 09:06 | -30.56549 | 143.76390 | 41327 ft | 486 kts | 131° |
| 2026-04-24 09:06 | -30.60445 | 143.82809 | 41322 ft | 486 kts | 131° |
| 2026-04-24 09:07 | -30.64338 | 143.89232 | 41326 ft | 486 kts | 131° |
| 2026-04-24 09:07 | -30.70147 | 143.98839 | 41326 ft | 486 kts | 131° |
| 2026-04-24 09:08 | -30.74031 | 144.05274 | 41328 ft | 486 kts | 130° |
| 2026-04-24 09:08 | -30.77908 | 144.11710 | 41333 ft | 486 kts | 130° |
| 2026-04-24 09:09 | -30.81784 | 144.18152 | 41333 ft | 486 kts | 130° |
| 2026-04-24 09:09 | -30.85655 | 144.24599 | 41334 ft | 486 kts | 130° |
| 2026-04-24 09:10 | -30.89521 | 144.31046 | 41335 ft | 485 kts | 130° |
| 2026-04-24 09:10 | -30.93386 | 144.37503 | 41338 ft | 485 kts | 130° |
| 2026-04-24 09:11 | -30.97220 | 144.43917 | 41338 ft | 485 kts | 130° |
| 2026-04-24 09:11 | -31.01073 | 144.50373 | 41340 ft | 485 kts | 130° |
| 2026-04-24 09:12 | -31.04922 | 144.56834 | 41342 ft | 485 kts | 130° |
| 2026-04-24 09:12 | -31.08764 | 144.63295 | 41345 ft | 485 kts | 129° |
| 2026-04-24 09:13 | -31.12603 | 144.69760 | 41347 ft | 484 kts | 129° |
| 2026-04-24 09:13 | -31.16436 | 144.76228 | 41349 ft | 484 kts | 129° |
| 2026-04-24 09:14 | -31.20265 | 144.82697 | 41349 ft | 484 kts | 129° |
| 2026-04-24 09:14 | -31.24063 | 144.89127 | 41355 ft | 484 kts | 129° |
| 2026-04-24 09:15 | -31.27878 | 144.95594 | 41357 ft | 483 kts | 129° |
| 2026-04-24 09:15 | -31.31693 | 145.02070 | 41363 ft | 483 kts | 129° |
| 2026-04-24 09:16 | -31.35504 | 145.08553 | 41361 ft | 482 kts | 129° |
| 2026-04-24 09:16 | -31.39302 | 145.15023 | 41364 ft | 482 kts | 129° |
| 2026-04-24 09:17 | -31.43094 | 145.21496 | 41367 ft | 482 kts | 129° |
| 2026-04-24 09:17 | -31.46856 | 145.27928 | 41367 ft | 481 kts | 129° |
| 2026-04-24 09:18 | -31.50637 | 145.34403 | 41367 ft | 481 kts | 129° |
| 2026-04-24 09:18 | -31.54409 | 145.40873 | 41368 ft | 481 kts | 129° |
| 2026-04-24 09:19 | -31.58175 | 145.47342 | 41374 ft | 480 kts | 129° |
| 2026-04-24 09:19 | -31.61936 | 145.53815 | 41376 ft | 480 kts | 128° |
| 2026-04-24 09:20 | -31.65690 | 145.60286 | 41375 ft | 479 kts | 128° |
| 2026-04-24 09:20 | -31.69439 | 145.66760 | 41376 ft | 479 kts | 128° |
| 2026-04-24 09:21 | -31.73179 | 145.73230 | 41381 ft | 479 kts | 128° |
| 2026-04-24 09:21 | -31.76915 | 145.79703 | 41382 ft | 478 kts | 128° |
| 2026-04-24 09:22 | -31.80644 | 145.86175 | 41382 ft | 478 kts | 128° |
| 2026-04-24 09:22 | -31.84348 | 145.92613 | 41389 ft | 477 kts | 128° |
| 2026-04-24 09:23 | -31.88063 | 145.99083 | 41388 ft | 477 kts | 128° |
| 2026-04-24 09:23 | -31.91776 | 146.05559 | 41394 ft | 477 kts | 128° |
| 2026-04-24 09:24 | -31.95484 | 146.12038 | 41395 ft | 476 kts | 128° |
| 2026-04-24 09:24 | -31.99184 | 146.18516 | 41392 ft | 476 kts | 128° |
| 2026-04-24 09:25 | -32.02882 | 146.24998 | 41399 ft | 476 kts | 128° |
| 2026-04-24 09:25 | -32.06547 | 146.31436 | 41400 ft | 475 kts | 128° |
| 2026-04-24 09:26 | -32.10228 | 146.37910 | 41404 ft | 475 kts | 128° |
| 2026-04-24 09:26 | -32.13899 | 146.44380 | 41404 ft | 475 kts | 128° |
| 2026-04-24 09:27 | -32.17571 | 146.50861 | 41402 ft | 474 kts | 128° |
| 2026-04-24 09:27 | -32.21231 | 146.57334 | 41401 ft | 474 kts | 128° |
| 2026-04-24 09:28 | -32.24886 | 146.63807 | 41407 ft | 473 kts | 128° |
| 2026-04-24 09:28 | -32.28536 | 146.70282 | 41406 ft | 473 kts | 128° |
| 2026-04-24 09:29 | -32.31568 | 146.75671 | 41403 ft | 473 kts | 128° |
| 2026-04-24 09:29 | -32.35211 | 146.82154 | 41401 ft | 473 kts | 128° |
| 2026-04-24 09:30 | -32.39435 | 146.89686 | 41405 ft | 472 kts | 128° |
| 2026-04-24 09:30 | -32.42455 | 146.95080 | 41404 ft | 472 kts | 128° |
| 2026-04-24 09:31 | -32.46081 | 147.01568 | 41403 ft | 472 kts | 127° |
| 2026-04-24 09:31 | -32.49701 | 147.08055 | 41406 ft | 472 kts | 127° |
| 2026-04-24 09:32 | -32.53317 | 147.14547 | 41408 ft | 472 kts | 127° |
| 2026-04-24 09:32 | -32.56925 | 147.21034 | 41407 ft | 471 kts | 127° |
| 2026-04-24 09:33 | -32.60534 | 147.27534 | 41405 ft | 471 kts | 127° |
| 2026-04-24 09:33 | -32.64131 | 147.34026 | 41409 ft | 471 kts | 127° |
| 2026-04-24 09:34 | -32.67702 | 147.40481 | 41413 ft | 471 kts | 127° |
| 2026-04-24 09:34 | -32.71292 | 147.46981 | 41417 ft | 470 kts | 127° |
| 2026-04-24 09:35 | -32.74874 | 147.53479 | 41404 ft | 470 kts | 127° |
| 2026-04-24 09:35 | -32.78456 | 147.59988 | 41410 ft | 470 kts | 127° |
| 2026-04-24 09:36 | -32.82031 | 147.66495 | 41409 ft | 470 kts | 127° |
| 2026-04-24 09:36 | -32.85602 | 147.73007 | 41418 ft | 469 kts | 127° |
| 2026-04-24 09:37 | -32.89163 | 147.79511 | 41413 ft | 469 kts | 127° |
| 2026-04-24 09:37 | -32.92720 | 147.86019 | 41412 ft | 469 kts | 127° |
| 2026-04-24 09:38 | -32.96274 | 147.92533 | 41417 ft | 469 kts | 127° |
| 2026-04-24 09:38 | -32.99818 | 147.99041 | 41419 ft | 468 kts | 127° |
| 2026-04-24 09:39 | -33.03355 | 148.05549 | 41431 ft | 468 kts | 127° |
| 2026-04-24 09:39 | -33.06892 | 148.12066 | 41429 ft | 468 kts | 127° |
| 2026-04-24 09:40 | -33.10425 | 148.18586 | 41426 ft | 468 kts | 127° |
| 2026-04-24 09:40 | -33.13927 | 148.25058 | 41434 ft | 467 kts | 127° |
| 2026-04-24 09:41 | -33.17552 | 148.31489 | 41433 ft | 466 kts | 128° |
| 2026-04-24 09:41 | -33.21228 | 148.37873 | 41438 ft | 466 kts | 128° |
| 2026-04-24 09:42 | -33.24900 | 148.44263 | 41440 ft | 466 kts | 128° |
| 2026-04-24 09:42 | -33.28545 | 148.50642 | 40978 ft | 461 kts | 128° |
| 2026-04-24 09:43 | -33.30343 | 148.53799 | 40434 ft | 458 kts | 128° |
| 2026-04-24 09:43 | -33.32129 | 148.56937 | 39998 ft | 454 kts | 128° |
| 2026-04-24 09:43 | -33.33913 | 148.60071 | 39752 ft | 457 kts | 128° |
| 2026-04-24 09:43 | -33.35702 | 148.63215 | 39516 ft | 458 kts | 128° |
| 2026-04-24 09:44 | -33.37492 | 148.66365 | 39284 ft | 457 kts | 128° |
| 2026-04-24 09:44 | -33.39276 | 148.69507 | 39045 ft | 456 kts | 128° |
| 2026-04-24 09:44 | -33.41055 | 148.72642 | 38766 ft | 455 kts | 128° |
| 2026-04-24 09:44 | -33.42833 | 148.75780 | 38484 ft | 455 kts | 128° |
| 2026-04-24 09:45 | -33.44611 | 148.78918 | 38211 ft | 456 kts | 128° |
| 2026-04-24 09:45 | -33.46391 | 148.82062 | 37935 ft | 456 kts | 128° |
| 2026-04-24 09:45 | -33.48169 | 148.85206 | 37678 ft | 456 kts | 128° |
| 2026-04-24 09:45 | -33.49953 | 148.88362 | 37425 ft | 457 kts | 128° |
| 2026-04-24 09:46 | -33.51733 | 148.91515 | 37154 ft | 457 kts | 128° |
| 2026-04-24 09:46 | -33.53490 | 148.94629 | 36895 ft | 457 kts | 128° |
| 2026-04-24 09:46 | -33.55261 | 148.97808 | 36735 ft | 459 kts | 126° |
| 2026-04-24 09:46 | -33.56826 | 149.01164 | 36674 ft | 463 kts | 121° |
| 2026-04-24 09:47 | -33.58179 | 149.04674 | 36422 ft | 463 kts | 118° |
| 2026-04-24 09:47 | -33.59463 | 149.08233 | 36172 ft | 464 kts | 117° |
| 2026-04-24 09:47 | -33.60728 | 149.11799 | 35934 ft | 465 kts | 117° |
| 2026-04-24 09:47 | -33.61987 | 149.15369 | 35690 ft | 465 kts | 117° |
| 2026-04-24 09:48 | -33.63245 | 149.18946 | 35449 ft | 466 kts | 117° |
| 2026-04-24 09:48 | -33.64496 | 149.22514 | 35209 ft | 466 kts | 117° |
| 2026-04-24 09:48 | -33.65749 | 149.26104 | 34981 ft | 466 kts | 117° |
| 2026-04-24 09:48 | -33.67000 | 149.29698 | 34744 ft | 467 kts | 117° |
| 2026-04-24 09:49 | -33.68247 | 149.33277 | 34313 ft | 462 kts | 117° |
| 2026-04-24 09:49 | -33.69487 | 149.36829 | 33448 ft | 461 kts | 117° |
| 2026-04-24 09:49 | -33.70733 | 149.40381 | 32508 ft | 462 kts | 116° |
| 2026-04-24 09:49 | -33.71983 | 149.43944 | 31545 ft | 464 kts | 116° |
| 2026-04-24 09:50 | -33.73235 | 149.47521 | 30576 ft | 465 kts | 116° |
| 2026-04-24 09:50 | -33.74488 | 149.51114 | 29431 ft | 467 kts | 115° |
| 2026-04-24 09:50 | -33.75741 | 149.54719 | 28412 ft | 467 kts | 115° |
| 2026-04-24 09:50 | -33.76987 | 149.58314 | 27552 ft | 464 kts | 114° |
| 2026-04-24 09:51 | -33.78221 | 149.61880 | 26735 ft | 461 kts | 114° |
| 2026-04-24 09:51 | -33.79448 | 149.65430 | 25940 ft | 458 kts | 114° |
| 2026-04-24 09:51 | -33.80664 | 149.68947 | 25167 ft | 455 kts | 114° |
| 2026-04-24 09:51 | -33.81877 | 149.72457 | 24376 ft | 453 kts | 113° |
| 2026-04-24 09:52 | -33.83079 | 149.75945 | 23558 ft | 449 kts | 113° |
| 2026-04-24 09:52 | -33.84266 | 149.79397 | 22791 ft | 444 kts | 113° |
| 2026-04-24 09:52 | -33.85449 | 149.82736 | 22039 ft | 437 kts | 117° |
| 2026-04-24 09:52 | -33.86707 | 149.86046 | 21240 ft | 432 kts | 117° |
| 2026-04-24 09:53 | -33.87927 | 149.89325 | 20476 ft | 426 kts | 116° |
| 2026-04-24 09:53 | -33.89101 | 149.92579 | 19703 ft | 421 kts | 115° |
| 2026-04-24 09:53 | -33.90239 | 149.95807 | 18966 ft | 416 kts | 115° |
| 2026-04-24 09:53 | -33.91351 | 149.99006 | 18156 ft | 412 kts | 115° |
| 2026-04-24 09:54 | -33.92440 | 150.02165 | 17312 ft | 408 kts | 114° |
| 2026-04-24 09:54 | -33.93517 | 150.05305 | 16500 ft | 403 kts | 114° |
| 2026-04-24 09:54 | -33.94579 | 150.08412 | 15711 ft | 399 kts | 114° |
| 2026-04-24 09:54 | -33.95628 | 150.11490 | 14932 ft | 394 kts | 114° |
| 2026-04-24 09:55 | -33.96664 | 150.14529 | 14153 ft | 390 kts | 114° |
| 2026-04-24 09:55 | -33.97689 | 150.17542 | 13333 ft | 385 kts | 114° |
| 2026-04-24 09:55 | -33.98684 | 150.20466 | 12547 ft | 380 kts | 114° |
| 2026-04-24 09:55 | -33.99679 | 150.23394 | 11775 ft | 375 kts | 114° |
| 2026-04-24 09:56 | -34.00659 | 150.26283 | 11002 ft | 370 kts | 114° |
| 2026-04-24 09:56 | -34.01625 | 150.29131 | 10249 ft | 364 kts | 113° |
| 2026-04-24 09:56 | -34.02578 | 150.31945 | 9512 ft | 358 kts | 113° |
| 2026-04-24 09:56 | -34.03499 | 150.34667 | 9129 ft | 342 kts | 113° |
| 2026-04-24 09:57 | -34.04378 | 150.37230 | 9049 ft | 318 kts | 114° |
| 2026-04-24 09:57 | -34.05199 | 150.39593 | 9044 ft | 294 kts | 115° |
| 2026-04-24 09:57 | -34.05962 | 150.41798 | 9030 ft | 277 kts | 114° |
| 2026-04-24 09:57 | -34.06693 | 150.43937 | 8834 ft | 275 kts | 114° |
| 2026-04-24 09:58 | -34.07407 | 150.46036 | 8359 ft | 274 kts | 114° |
| 2026-04-24 09:58 | -34.08043 | 150.48190 | 7898 ft | 272 kts | 108° |
| 2026-04-24 09:58 | -34.08456 | 150.50415 | 7768 ft | 272 kts | 101° |
| 2026-04-24 09:58 | -34.08615 | 150.52691 | 7944 ft | 272 kts | 93° |
| 2026-04-24 09:59 | -34.08520 | 150.54968 | 8017 ft | 271 kts | 86° |
| 2026-04-24 09:59 | -34.08174 | 150.57186 | 8025 ft | 270 kts | 80° |
| 2026-04-24 09:59 | -34.07709 | 150.59393 | 8020 ft | 269 kts | 78° |
| 2026-04-24 09:59 | -34.07234 | 150.61575 | 7973 ft | 269 kts | 78° |
| 2026-04-24 10:00 | -34.06760 | 150.63750 | 7745 ft | 268 kts | 78° |
| 2026-04-24 10:00 | -34.06284 | 150.65921 | 7498 ft | 267 kts | 78° |
| 2026-04-24 10:00 | -34.05812 | 150.68081 | 7266 ft | 266 kts | 78° |
| 2026-04-24 10:00 | -34.05345 | 150.70232 | 7020 ft | 262 kts | 78° |
| 2026-04-24 10:01 | -34.04883 | 150.72361 | 6711 ft | 259 kts | 78° |
| 2026-04-24 10:01 | -34.04428 | 150.74439 | 6205 ft | 259 kts | 78° |
| 2026-04-24 10:01 | -34.03963 | 150.76561 | 6028 ft | 265 kts | 78° |
| 2026-04-24 10:01 | -34.03496 | 150.78725 | 6012 ft | 265 kts | 78° |
| 2026-04-24 10:02 | -34.03019 | 150.80867 | 6009 ft | 264 kts | 77° |
| 2026-04-24 10:02 | -34.02441 | 150.82968 | 6000 ft | 266 kts | 67° |
| 2026-04-24 10:02 | -34.01381 | 150.84793 | 6004 ft | 268 kts | 49° |
| 2026-04-24 10:02 | -33.99925 | 150.86152 | 6010 ft | 267 kts | 37° |
| 2026-04-24 10:03 | -33.98875 | 150.86888 | 6010 ft | 266 kts | 33° |
| 2026-04-24 10:03 | -33.97251 | 150.87891 | 6008 ft | 265 kts | 31° |
| 2026-04-24 10:03 | -33.95592 | 150.88849 | 5965 ft | 265 kts | 30° |
| 2026-04-24 10:03 | -33.93923 | 150.89797 | 5550 ft | 265 kts | 30° |
| 2026-04-24 10:04 | -33.92258 | 150.90731 | 5063 ft | 263 kts | 30° |
| 2026-04-24 10:04 | -33.90603 | 150.91651 | 4582 ft | 262 kts | 30° |
| 2026-04-24 10:04 | -33.88952 | 150.92561 | 4162 ft | 260 kts | 30° |
| 2026-04-24 10:04 | -33.87305 | 150.93461 | 4007 ft | 261 kts | 29° |
| 2026-04-24 10:05 | -33.85648 | 150.94365 | 4005 ft | 261 kts | 30° |
| 2026-04-24 10:05 | -33.83997 | 150.95267 | 4005 ft | 260 kts | 30° |
| 2026-04-24 10:05 | -33.82496 | 150.96086 | 4009 ft | 260 kts | 30° |
| 2026-04-24 10:05 | -33.80948 | 150.96930 | 4002 ft | 260 kts | 30° |
| 2026-04-24 10:06 | -33.79293 | 150.97831 | 4002 ft | 260 kts | 30° |
| 2026-04-24 10:06 | -33.75995 | 150.99625 | 4010 ft | 260 kts | 30° |
| 2026-04-24 10:06 | -33.74366 | 151.00511 | 4002 ft | 260 kts | 29° |
| 2026-04-24 10:07 | -33.72696 | 151.01419 | 3999 ft | 260 kts | 30° |
| 2026-04-24 10:07 | -33.71060 | 151.02337 | 3950 ft | 258 kts | 34° |
| 2026-04-24 10:07 | -33.69817 | 151.03798 | 3555 ft | 251 kts | 66° |
| 2026-04-24 10:07 | -33.69541 | 151.05796 | 3140 ft | 248 kts | 103° |
| 2026-04-24 10:08 | -33.70224 | 151.07699 | 2998 ft | 248 kts | 123° |
| 2026-04-24 10:08 | -33.71154 | 151.09440 | 2997 ft | 253 kts | 127° |
| 2026-04-24 10:08 | -33.72244 | 151.11094 | 3010 ft | 250 kts | 143° |
| 2026-04-24 10:08 | -33.73703 | 151.12068 | 2999 ft | 227 kts | 162° |
| 2026-04-24 10:09 | -33.75138 | 151.12482 | 3005 ft | 198 kts | 171° |
| 2026-04-24 10:09 | -33.76453 | 151.12795 | 3007 ft | 187 kts | 171° |
| 2026-04-24 10:09 | -33.77710 | 151.13077 | 3010 ft | 183 kts | 171° |
| 2026-04-24 10:09 | -33.78930 | 151.13413 | 2884 ft | 176 kts | 167° |
| 2026-04-24 10:10 | -33.80092 | 151.13793 | 2649 ft | 172 kts | 167° |
| 2026-04-24 10:10 | -33.81247 | 151.14103 | 2397 ft | 168 kts | 171° |
| 2026-04-24 10:10 | -33.82379 | 151.14383 | 2155 ft | 163 kts | 170° |
| 2026-04-24 10:10 | -33.83450 | 151.14660 | 1936 ft | 151 kts | 169° |
| 2026-04-24 10:11 | -33.84452 | 151.14924 | 1739 ft | 145 kts | 169° |
| 2026-04-24 10:11 | -33.85403 | 151.15174 | 1555 ft | 134 kts | 169° |
| 2026-04-24 10:11 | -33.86289 | 151.15408 | 1379 ft | 127 kts | 169° |
| 2026-04-24 10:11 | -33.87151 | 151.15636 | 1208 ft | 126 kts | 169° |
| 2026-04-24 10:12 | -33.88010 | 151.15863 | 1044 ft | 126 kts | 169° |
| 2026-04-24 10:12 | -33.88859 | 151.16086 | 877 ft | 126 kts | 171° |
| 2026-04-24 10:12 | -33.89707 | 151.16307 | 699 ft | 124 kts | 171° |
| 2026-04-24 10:12 | -33.90541 | 151.16532 | 540 ft | 122 kts | 173° |
| 2026-04-24 10:13 | -33.91380 | 151.16759 | 367 ft | 122 kts | 170° |
| 2026-04-24 10:13 | -33.92206 | 151.16975 | 217 ft | 121 kts | 171° |
| 2026-04-24 10:13 | -33.93030 | 151.17185 | 89 ft | 121 kts | 170° |
| 2026-04-24 10:13 | -33.93832 | 151.17392 | 34 ft | 107 kts | 168° |
| 2026-04-24 10:14 | -33.94443 | 151.17550 | 36 ft | 75 kts | 168° |
| 2026-04-24 10:14 | -33.94857 | 151.17657 | 35 ft | 45 kts | 168° |
| 2026-04-24 10:14 | -33.95135 | 151.17729 | 34 ft | 24 kts | 168° |
| 2026-04-24 10:14 | -33.95200 | 151.17743 | 35 ft | 3 kts | 180° |
| 2026-04-24 10:15 | -33.95244 | 151.17702 | 35 ft | 12 kts | 247° |
| 2026-04-24 10:15 | -33.95254 | 151.17567 | 35 ft | 8 kts | 302° |
| 2026-04-24 10:15 | -33.95213 | 151.17548 | 36 ft | 8 kts | 345° |
| 2026-04-24 10:15 | -33.95115 | 151.17521 | 36 ft | 17 kts | 349° |
| 2026-04-24 10:16 | -33.95031 | 151.17499 | 36 ft | 20 kts | 348° |
| 2026-04-24 10:16 | -33.94880 | 151.17461 | 36 ft | 24 kts | 347° |
| 2026-04-24 10:16 | -33.94647 | 151.17401 | 37 ft | 24 kts | 346° |
| 2026-04-24 10:16 | -33.94532 | 151.17371 | 37 ft | 26 kts | 348° |
| 2026-04-24 10:17 | -33.94340 | 151.17321 | 36 ft | 30 kts | 348° |
| 2026-04-24 10:17 | -33.94132 | 151.17267 | 35 ft | 30 kts | 348° |
| 2026-04-24 10:17 | -33.93998 | 151.17225 | 36 ft | 14 kts | 326° |
| 2026-04-24 10:17 | -33.93983 | 151.17136 | 36 ft | 9 kts | 287° |
| 2026-04-24 10:18 | -33.93925 | 151.17097 | 36 ft | 12 kts | 347° |
| 2026-04-24 10:18 | -33.93867 | 151.17082 | 36 ft | 1 kts | 348° |
| 2026-04-24 10:18 | -33.93842 | 151.17059 | 36 ft | 4 kts | 292° |
| 2026-04-24 10:18 | -33.93849 | 151.17020 | 36 ft | 7 kts | 258° |
| 2026-04-24 10:19 | -33.93856 | 151.16987 | 36 ft | 6 kts | 255° |
| 2026-04-24 10:19 | -33.93858 | 151.16976 | 36 ft | 0 kts | 255° |